Elly Lane — WDF4879 — position and weather

sailwx.info

Track history (hours):
 
Tides and Currents Weather Stations Pressure Air Temp Water Temp Dewpoint Dewpoint Depression Visibility Wind Speed Wind Dir Waves Ship Positions

Elly Lane

Owner: Canal Barge Company, Inc., Belle Chasse, LA. More information available from US FCC via Universal Licensing System and Coast Guard Vessel Documentation Center.

Last reported at 2018-Feb-08 22:00 UTC. Time now 2018-Feb-18 09:12 UTC.
Position N 32°34' W 091°07'.
Warning: this ship's position is 9 days out of date.

Length 32 m; draft 3.2 m.

Type: Towing. MMSI: 367456810.

Date/timePositionNaut miles runAvg speedWind from/ knotsBaromVisibWave heightAir tempDewpointWater temp
2018-Feb-08 22:00N 32°34' W 091°07'4 2.8
2018-Feb-08 20:30N 32°30' W 091°07'3 1.2
2018-Feb-08 18:00N 32°27' W 091°06'2 3.8
2018-Feb-08 17:30N 32°26' W 091°04'4 4.0
2018-Feb-08 16:30N 32°24' W 090°59'2 4.0
2018-Feb-08 16:00N 32°23' W 091°00'2 3.2
2018-Feb-08 15:30N 32°21' W 090°59'2 4.5
2018-Feb-08 15:00N 32°21' W 090°57'3 2.9
2018-Feb-08 14:00N 32°19' W 090°55'0 0.8
2018-Feb-08 13:30N 32°18' W 090°55'0 0.0
2018-Feb-08 13:00N 32°18' W 090°55'0 0.0
2018-Feb-08 12:30N 32°18' W 090°55'0 0.0
2018-Feb-08 12:00N 32°18' W 090°55'0 0.0
2018-Feb-08 11:30N 32°18' W 090°55'0 0.0
2018-Feb-08 11:00N 32°18' W 090°55'0 0.0
2018-Feb-08 10:30N 32°18' W 090°55'1 1.2
2018-Feb-08 09:30N 32°18' W 090°56'3 2.7
2018-Feb-08 08:30N 32°16' W 090°58'1 2.3
2018-Feb-08 08:00N 32°15' W 090°59'1 2.6
2018-Feb-08 07:30N 32°13' W 090°59'6 3.8
2018-Feb-08 06:00N 32°08' W 091°01'5 3.3
2018-Feb-08 04:30N 32°08' W 091°06'7 1.2
2018-Feb-07 22:47N 32°01' W 091°05'  
Track history (hours):
 
Tides and Currents Weather Stations Pressure Air Temp Water Temp Dewpoint Dewpoint Depression Visibility Wind Speed Wind Dir Waves Ship Positions

Elly Lane

Owner: Canal Barge Company, Inc., Belle Chasse, LA. More information available from US FCC via Universal Licensing System and Coast Guard Vessel Documentation Center.

Last reported at 2018-Feb-08 22:00 UTC. Time now 2018-Feb-18 09:12 UTC.
Position N 32°34' W 091°07'.
Warning: this ship's position is 9 days out of date.

Length 32 m; draft 3.2 m.

Type: Towing. MMSI: 367456810.

Date/timePositionNaut miles runAvg speedWind from/ knotsBaromVisibWave heightAir tempDewpointWater temp
2018-Feb-08 22:00N 32°34' W 091°07'4 2.8
2018-Feb-08 20:30N 32°30' W 091°07'3 1.2
2018-Feb-08 18:00N 32°27' W 091°06'2 3.8
2018-Feb-08 17:30N 32°26' W 091°04'4 4.0
2018-Feb-08 16:30N 32°24' W 090°59'2 4.0
2018-Feb-08 16:00N 32°23' W 091°00'2 3.2
2018-Feb-08 15:30N 32°21' W 090°59'2 4.5
2018-Feb-08 15:00N 32°21' W 090°57'3 2.9
2018-Feb-08 14:00N 32°19' W 090°55'0 0.8
2018-Feb-08 13:30N 32°18' W 090°55'0 0.0
2018-Feb-08 13:00N 32°18' W 090°55'0 0.0
2018-Feb-08 12:30N 32°18' W 090°55'0 0.0
2018-Feb-08 12:00N 32°18' W 090°55'0 0.0
2018-Feb-08 11:30N 32°18' W 090°55'0 0.0
2018-Feb-08 11:00N 32°18' W 090°55'0 0.0
2018-Feb-08 10:30N 32°18' W 090°55'1 1.2
2018-Feb-08 09:30N 32°18' W 090°56'3 2.7
2018-Feb-08 08:30N 32°16' W 090°58'1 2.3
2018-Feb-08 08:00N 32°15' W 090°59'1 2.6
2018-Feb-08 07:30N 32°13' W 090°59'6 3.8
2018-Feb-08 06:00N 32°08' W 091°01'5 3.3
2018-Feb-08 04:30N 32°08' W 091°06'7 1.2
2018-Feb-07 22:47N 32°01' W 091°05'  

Dump ship's entire track history